CheckWX is a tool to help pilots better visualize weather data.  It is not intended as a substitute for an official pre-flight weather briefing.

08:01:57 UTC

ETAD TAF
Spangdahlem Air Base Airport
Trier, Germany
TAF ETAD 190500Z 1905/2011 32005KT 8000 BR FEW030 QNH3028INS TEMPO 1905/1907 3200 BR BECMG 1907/1908 35006KT 9999 NSW FEW040 QNH3033INS BECMG 1917/1918 35006KT 9999 BKN060 620602 QNH3038INS TX09/1914Z TNM03/1906Z

Mar-19@
05:00 UTC

Mar-19 @ 05:00 UTC

Mar-19@
07:00 UTC

Mar-19 @ 07:00 UTC

TAF ETAD 190500Z 1905/2011 32005KT 8000 BR FEW030 QNH3028INS

Expired

Wind
  • 320° at 5 KTS
Conditions
Mist
Cloud Levels
  • Few at 3,000' AGL

Mar-19@
05:00 UTC

Mar-19 @ 05:00 UTC

Mar-19@
07:00 UTC

Mar-19 @ 07:00 UTC

TEMPO 1905/1907 3200 BR

Expired

Conditions
Mist

Mar-19@
07:00 UTC

Mar-19 @ 07:00 UTC

Mar-19@
17:00 UTC

Mar-19 @ 17:00 UTC

BECMG 1907/1908 35006KT 9999 NSW FEW040 QNH3033INS

Becoming

Becoming Conditions expected by Tue, Mar 19, 2019 @ 08:00 UTC

Wind
  • 350° at 6 KTS
Conditions
No significant weather
Cloud Levels
  • Few at 4,000' AGL

Mar-19@
17:00 UTC

Mar-19 @ 17:00 UTC

Mar-20@
11:00 UTC

Mar-20 @ 11:00 UTC

BECMG 1917/1918 35006KT 9999 BKN060 620602 QNH3038INS TX09/1914Z TNM03/1906Z

Becoming

Becoming Conditions expected by Tue, Mar 19, 2019 @ 18:00 UTC

Wind
  • 350° at 6 KTS
Conditions
No significant weather
Cloud Levels
  • Broken at 6,000' AGL
Icing
Light icing in cloud expected at 6,000' AGL extending to 8,000' AGL